createdAt,value
2022-10-15T00:01:54.323Z,17.40
2022-10-15T00:04:24.517Z,17.07
2022-10-15T00:06:53.376Z,18.13
2022-10-15T00:09:22.221Z,17.87
2022-10-15T00:11:51.221Z,18.50
2022-10-15T00:14:20.088Z,19.10
2022-10-15T00:16:48.996Z,17.73
2022-10-15T00:19:17.899Z,18.83
2022-10-15T00:21:48.325Z,19.60
2022-10-15T00:24:17.202Z,19.77
2022-10-15T00:26:45.939Z,19.37
2022-10-15T00:29:14.756Z,19.63
2022-10-15T00:31:43.810Z,18.63
2022-10-15T00:34:14.395Z,19.13
2022-10-15T00:36:43.106Z,19.60
2022-10-15T00:39:13.907Z,19.03
2022-10-15T00:41:45.435Z,20.00
2022-10-15T00:44:49.492Z,20.47
2022-10-15T00:47:21.833Z,19.67
2022-10-15T00:49:56.539Z,20.10
2022-10-15T00:52:31.340Z,19.77
2022-10-15T00:55:08.206Z,20.33
2022-10-15T00:57:56.935Z,20.50
2022-10-15T01:00:26.000Z,20.60
2022-10-15T01:02:54.900Z,19.53
2022-10-15T01:05:24.851Z,20.53
2022-10-15T01:07:53.857Z,20.90
2022-10-15T01:10:29.230Z,21.13
2022-10-15T01:13:05.925Z,20.77
2022-10-15T01:15:59.793Z,20.20
2022-10-15T01:18:33.949Z,19.67
2022-10-15T01:21:09.852Z,19.93
2022-10-15T01:24:14.223Z,19.80
2022-10-15T01:27:10.999Z,19.50
2022-10-15T01:30:24.822Z,19.87
2022-10-15T01:33:23.471Z,20.13
2022-10-15T01:35:55.768Z,18.73
2022-10-15T01:38:34.559Z,18.90
2022-10-15T01:41:10.727Z,18.77
2022-10-15T01:43:46.080Z,20.33
2022-10-15T01:46:33.547Z,19.77
2022-10-15T01:49:08.488Z,20.67
2022-10-15T01:51:40.285Z,20.80
2022-10-15T01:54:13.162Z,19.67
2022-10-15T01:56:49.848Z,19.77
2022-10-15T01:59:24.080Z,20.40
2022-10-15T02:01:55.013Z,19.67
2022-10-15T02:04:29.733Z,20.93
2022-10-15T02:07:04.971Z,20.63
2022-10-15T02:09:46.697Z,20.53
2022-10-15T02:12:39.280Z,22.00
2022-10-15T02:15:15.450Z,20.63
2022-10-15T02:17:51.326Z,20.93
2022-10-15T02:20:24.364Z,20.33
2022-10-15T02:23:01.335Z,21.93
2022-10-15T02:25:30.568Z,21.07
2022-10-15T02:28:01.961Z,20.90
2022-10-15T02:30:31.595Z,21.33
2022-10-15T02:33:01.297Z,21.83
2022-10-15T02:35:31.817Z,21.83
2022-10-15T02:38:06.891Z,21.37
2022-10-15T02:40:55.400Z,23.03
2022-10-15T02:43:24.685Z,22.63
2022-10-15T02:45:53.625Z,21.57
2022-10-15T02:48:23.373Z,22.73
2022-10-15T02:50:53.658Z,23.30
2022-10-15T02:53:22.503Z,23.30
2022-10-15T02:55:51.303Z,23.30
2022-10-15T02:58:20.226Z,24.03
2022-10-15T03:00:49.121Z,21.87
2022-10-15T03:03:17.865Z,21.53
2022-10-15T03:05:47.359Z,20.60
2022-10-15T03:08:18.007Z,23.23
2022-10-15T03:10:48.040Z,21.90
2022-10-15T03:13:17.047Z,22.20
2022-10-15T03:15:50.724Z,22.70
2022-10-15T03:18:19.715Z,23.03
2022-10-15T03:20:55.828Z,22.57
2022-10-15T03:23:26.573Z,23.50
2022-10-15T03:26:06.150Z,23.40
2022-10-15T03:28:35.862Z,23.63
2022-10-15T03:31:04.987Z,22.70
2022-10-15T03:33:34.574Z,23.73
2022-10-15T03:36:04.252Z,25.73
2022-10-15T03:38:34.826Z,24.60
2022-10-15T03:41:06.033Z,24.43
2022-10-15T03:43:42.631Z,25.23
2022-10-15T03:46:12.491Z,24.87
2022-10-15T03:48:44.964Z,25.50
2022-10-15T03:51:18.526Z,25.40
2022-10-15T03:53:56.466Z,26.23
2022-10-15T03:56:25.524Z,26.37
2022-10-15T03:58:58.669Z,27.80
2022-10-15T04:01:27.666Z,26.67
2022-10-15T04:03:57.726Z,26.97
2022-10-15T04:06:28.076Z,27.57
2022-10-15T04:08:58.269Z,27.63
2022-10-15T04:11:46.053Z,27.67
2022-10-15T04:14:15.927Z,27.00
2022-10-15T04:16:45.559Z,27.03
2022-10-15T04:19:19.882Z,26.23
2022-10-15T04:21:59.223Z,26.83
2022-10-15T04:24:45.547Z,26.37
2022-10-15T04:27:33.059Z,29.00
2022-10-15T04:30:09.740Z,28.07
2022-10-15T04:32:42.468Z,27.47
2022-10-15T04:35:12.519Z,27.40
2022-10-15T04:38:00.130Z,27.50
2022-10-15T04:40:36.187Z,27.57
2022-10-15T04:43:23.429Z,28.33
2022-10-15T04:45:58.915Z,29.13
2022-10-15T04:48:30.818Z,29.37
2022-10-15T04:51:05.546Z,28.37
2022-10-15T04:53:45.461Z,29.53
2022-10-15T04:56:18.158Z,30.67
2022-10-15T04:58:49.320Z,29.60
2022-10-15T05:01:21.286Z,29.60
2022-10-15T05:04:16.478Z,31.67
2022-10-15T05:06:45.277Z,32.93
2022-10-15T05:09:21.211Z,34.00
2022-10-15T05:11:55.599Z,36.13
2022-10-15T05:14:24.614Z,36.00
2022-10-15T05:17:06.681Z,33.33
2022-10-15T05:19:41.164Z,37.43
2022-10-15T05:22:17.254Z,29.77
2022-10-15T05:24:52.992Z,25.10
2022-10-15T05:27:37.345Z,19.30
2022-10-15T05:30:08.428Z,15.27
2022-10-15T05:32:43.253Z,13.43
2022-10-15T05:35:14.327Z,13.13
2022-10-15T05:37:55.136Z,13.67
2022-10-15T05:40:25.414Z,13.70
2022-10-15T05:43:15.942Z,15.47
2022-10-15T05:45:45.004Z,17.77
2022-10-15T05:48:15.645Z,18.37
2022-10-15T05:50:44.872Z,17.60
2022-10-15T05:53:20.945Z,18.13
2022-10-15T05:55:54.806Z,21.27
2022-10-15T05:58:33.376Z,23.07
2022-10-15T06:01:07.109Z,22.33
2022-10-15T06:03:40.395Z,22.90
2022-10-15T06:06:16.055Z,23.03
2022-10-15T06:08:45.149Z,23.27
2022-10-15T06:11:13.955Z,27.47
2022-10-15T06:13:45.461Z,29.37
2022-10-15T06:16:19.518Z,31.77
2022-10-15T06:18:52.725Z,25.87
2022-10-15T06:21:21.611Z,22.30
2022-10-15T06:23:50.390Z,19.33
2022-10-15T06:26:19.341Z,21.37
2022-10-15T06:28:51.425Z,28.40
2022-10-15T06:31:20.800Z,24.90
2022-10-15T06:33:49.754Z,23.70
2022-10-15T06:36:18.498Z,27.70
2022-10-15T06:38:49.069Z,25.90
2022-10-15T06:41:17.952Z,21.80
2022-10-15T06:43:47.310Z,24.27
2022-10-15T06:46:17.879Z,18.60
2022-10-15T06:48:46.779Z,16.73
2022-10-15T06:51:15.602Z,16.77
2022-10-15T06:53:51.602Z,18.67
2022-10-15T06:56:38.986Z,17.10
2022-10-15T06:59:07.896Z,15.77
2022-10-15T07:01:41.359Z,14.07
2022-10-15T07:04:11.527Z,12.17
2022-10-15T07:06:41.759Z,12.50
2022-10-15T07:09:10.789Z,11.30
2022-10-15T07:11:39.578Z,11.00
2022-10-15T07:14:08.470Z,10.47
2022-10-15T07:16:39.773Z,9.80
2022-10-15T07:19:08.653Z,9.37
2022-10-15T07:21:37.526Z,9.80
2022-10-15T07:24:06.983Z,8.53
2022-10-15T07:26:36.148Z,9.87
2022-10-15T07:29:05.378Z,9.83
2022-10-15T07:31:34.524Z,10.00
2022-10-15T07:34:08.251Z,10.40
2022-10-15T07:36:37.165Z,10.60
2022-10-15T07:39:05.968Z,10.03
2022-10-15T07:41:34.804Z,10.27
2022-10-15T07:44:22.395Z,9.40
2022-10-15T07:46:51.176Z,9.77
2022-10-15T07:49:21.429Z,8.80
2022-10-15T07:51:50.381Z,9.90
2022-10-15T07:54:19.077Z,10.00
2022-10-15T07:56:48.025Z,8.83
2022-10-15T07:59:16.863Z,9.13
2022-10-15T08:01:48.431Z,9.27
2022-10-15T08:04:21.824Z,8.90
2022-10-15T08:06:51.378Z,8.67
2022-10-15T08:09:20.506Z,8.00
2022-10-15T08:11:49.390Z,8.80
2022-10-15T08:14:19.550Z,8.63
2022-10-15T08:16:48.479Z,10.53
2022-10-15T08:19:18.398Z,9.70
2022-10-15T08:21:48.772Z,9.47
2022-10-15T08:24:17.695Z,8.70
2022-10-15T08:26:46.546Z,10.23
2022-10-15T08:29:15.615Z,8.47
2022-10-15T08:32:02.850Z,10.47
2022-10-15T08:34:32.677Z,13.27
2022-10-15T08:37:04.481Z,38.57
2022-10-15T08:39:33.587Z,47.07
2022-10-15T08:42:04.425Z,48.80
2022-10-15T08:44:43.845Z,34.67
2022-10-15T08:47:24.856Z,43.80
2022-10-15T08:49:56.629Z,26.13
2022-10-15T08:52:41.240Z,50.03
2022-10-15T08:55:17.388Z,21.10
2022-10-15T08:57:50.795Z,30.07
2022-10-15T09:00:23.385Z,29.73
2022-10-15T09:03:02.728Z,22.40
2022-10-15T09:05:40.713Z,20.73
2022-10-15T09:08:21.583Z,24.03
2022-10-15T09:10:54.039Z,33.83
2022-10-15T09:13:27.909Z,28.67
2022-10-15T09:16:01.605Z,25.13
2022-10-15T09:18:33.719Z,26.80
2022-10-15T09:21:03.863Z,28.13
2022-10-15T09:23:36.182Z,26.53
2022-10-15T09:26:11.162Z,26.10
2022-10-15T09:28:46.474Z,26.80
2022-10-15T09:31:23.320Z,24.50
2022-10-15T09:33:56.225Z,27.50
2022-10-15T09:36:49.750Z,22.20
2022-10-15T09:39:45.078Z,20.53
2022-10-15T09:42:27.377Z,25.03
2022-10-15T09:44:59.057Z,30.27
2022-10-15T09:47:30.469Z,38.47
2022-10-15T09:50:03.012Z,27.80
2022-10-15T09:52:58.106Z,27.17
2022-10-15T09:55:38.792Z,26.67
2022-10-15T09:58:30.534Z,23.83
2022-10-15T10:01:01.754Z,20.67
2022-10-15T10:03:37.548Z,18.10
2022-10-15T10:06:09.755Z,18.80
2022-10-15T10:08:41.835Z,21.03
2022-10-15T10:11:14.079Z,21.87
2022-10-15T10:13:52.092Z,19.60
2022-10-15T10:16:23.687Z,21.03
2022-10-15T10:19:09.180Z,22.17
2022-10-15T10:21:40.366Z,18.07
2022-10-15T10:24:28.711Z,17.70
2022-10-15T10:26:59.979Z,17.40
2022-10-15T10:29:34.170Z,17.97
2022-10-15T10:32:13.666Z,18.10
2022-10-15T10:34:50.063Z,15.40
2022-10-15T10:37:21.762Z,14.93
2022-10-15T10:39:55.940Z,15.77
2022-10-15T10:42:38.417Z,15.90
2022-10-15T10:45:22.116Z,16.97
2022-10-15T10:47:51.133Z,15.87
2022-10-15T10:50:30.884Z,17.77
2022-10-15T10:53:00.291Z,17.87
2022-10-15T10:55:38.734Z,20.23
2022-10-15T10:58:20.139Z,20.70
2022-10-15T11:00:53.760Z,20.00
2022-10-15T11:03:31.888Z,19.27
2022-10-15T11:06:10.432Z,15.00
2022-10-15T11:09:10.118Z,15.60
2022-10-15T11:11:44.365Z,15.77
2022-10-15T11:14:25.308Z,17.57
2022-10-15T11:17:01.641Z,18.53
2022-10-15T11:20:20.725Z,19.57
2022-10-15T11:23:11.208Z,18.33
2022-10-15T11:25:47.782Z,17.40
2022-10-15T11:28:28.971Z,17.63
2022-10-15T11:31:11.373Z,16.17
2022-10-15T11:33:57.789Z,13.37
2022-10-15T11:36:40.754Z,12.10
2022-10-15T11:39:33.585Z,12.47
2022-10-15T11:42:14.480Z,13.53
2022-10-15T11:45:01.462Z,13.43
2022-10-15T11:47:41.905Z,13.77
2022-10-15T11:50:23.420Z,13.63
2022-10-15T11:53:07.518Z,14.80
2022-10-15T11:55:43.857Z,15.10
2022-10-15T11:58:18.355Z,14.83
2022-10-15T12:00:51.737Z,14.70
2022-10-15T12:03:26.471Z,13.73
2022-10-15T12:05:58.414Z,12.63
2022-10-15T12:08:32.130Z,13.63
2022-10-15T12:11:15.089Z,13.80
2022-10-15T12:13:48.674Z,13.50
2022-10-15T12:16:27.593Z,13.07
2022-10-15T12:19:09.275Z,14.07
2022-10-15T12:21:41.318Z,12.90
2022-10-15T12:24:54.508Z,12.00
2022-10-15T12:27:30.478Z,11.50
2022-10-15T12:30:24.012Z,12.40
2022-10-15T12:32:55.831Z,11.47
2022-10-15T12:35:36.493Z,11.87
2022-10-15T12:38:26.547Z,11.87
2022-10-15T12:41:01.588Z,12.40
2022-10-15T12:43:32.789Z,14.10
2022-10-15T12:46:04.719Z,13.67
2022-10-15T12:48:37.907Z,12.37
2022-10-15T12:51:35.542Z,12.03
2022-10-15T12:54:04.541Z,11.93
2022-10-15T12:56:42.466Z,12.00
2022-10-15T12:59:32.633Z,12.00
2022-10-15T13:02:03.957Z,11.30
2022-10-15T13:04:41.073Z,11.03
2022-10-15T13:07:16.427Z,11.00
2022-10-15T13:09:45.442Z,11.37
2022-10-15T13:12:24.981Z,11.23
2022-10-15T13:14:59.460Z,10.77
2022-10-15T13:17:28.625Z,11.20
2022-10-15T13:20:00.712Z,11.13
2022-10-15T13:22:32.563Z,13.17
2022-10-15T13:25:02.020Z,11.87
2022-10-15T13:27:32.450Z,11.80
2022-10-15T13:30:02.555Z,15.50
2022-10-15T13:32:35.217Z,16.20
2022-10-15T13:35:11.726Z,14.27
2022-10-15T13:37:44.365Z,14.40
2022-10-15T13:40:21.867Z,13.30
2022-10-15T13:43:18.771Z,13.23
2022-10-15T13:45:52.508Z,15.17
2022-10-15T13:48:23.623Z,17.03
2022-10-15T13:50:54.763Z,20.10
2022-10-15T13:53:30.388Z,15.30
2022-10-15T13:56:01.508Z,15.20
